New Bern, NC (28564)

12:38 PM EST on February 08, 2016 (GMT -0500)
Fairfield Harbour | | Change Station
CLOSE
Current Station
Personal Weather Station
Location: New Bern, NC
Elevation: 20 ft
Nearby Weather Stations

Elev 20 ft 35.08 °N, 76.98 °W | Updated 0 second ago

Clear
Clear
51.3 °F
Feels Like 51.3 °F
N
0.0
Wind Variable Wind from NW
Gusts 0.0 mph

Today
High -- | Low -- °F
--% Chance of Precip.
Yesterday
High -- | Low -- °F
Precip. -- in
Pressure 29.82 in
Visibility 10.0 miles
Clouds Clear
Dew Point 28 °F
Humidity 40%
Rainfall 0.00 in
Snow Depth Not available.
7:01 AM 5:43 PM
New Moon, 0% visible
METAR KEWN 081654Z 27004KT 10SM CLR 11/M02 A2982 RMK AO2 SLP096 T01061022
Pressure 29.82 in
Visibility 10.0 miles
Clouds Clear
Dew Point 28 °F
Humidity 40%
Rainfall 0.00 in
Snow Depth Not available.
7:01 AM 5:43 PM
New Moon, 0% visible
METAR KEWN 081654Z 27004KT 10SM CLR 11/M02 A2982 RMK AO2 SLP096 T01061022

10-Day Weather Forecast

Almanac

Astronomy

Feb. 08, 2016 Rise Set
Actual Time
Civil Twilight
Nautical Twilight
Astronomical Twilight
Moon
Length of Visible Light
Length of Day
Tomorrow will be .
, % of the Moon is Illuminated

Today's Extremes

State Highs State Lows

Community

WunderPhotos

Upload Photos

1,891,473 photos uploaded!

WunderBlog® & News

Nearby

Air Quality

  Air Quality AQ Index Pollutant
Not available.

Snow Depth

Station Depth Elevation

Earthquake Activity

City Distance Mag. Time & Date
Minimum magnitude displayed is 2.5.

Coastal Water Temperatures

Place Temperature

Stations

Nearby Weather Stations

Station Location Temp. Windchill Dew Point Humidity Wind Precip. Elev Updated Type
                   

Watches & Warnings

Flood Warning
Issued: 10:00 AM EST Feb. 8, 2016 – National Weather Service

The Flood Warning continues for
the Swift Creek near streets Ferry.
* Until further notice... or until the warning is cancelled.
* At 9 am Monday the stage was 5.3 feet.
* Minor flooding is occurring and N/A flooding is forecast.
* Flood stage is 4.0 feet.
* Impact... at 6.0 feet... homes flooded along streets Ferry Road south
of Swift Creek bridge to Piney Neck Road.


Lat... Lon 3531 7715 3529 7713 3524 7709 3522 7711
          3528 7720 3530 7718